KRNT - Renton
Updated: Wed, 29-Mar-2017 12:53pm PDT

 Wind from S
Wind: S 18 mph , 30 km/h, Gust: 32 mph , 52 km/h
Temperature: 57°F , 14°C
Dew Point: 48°F , 9°C
Humidity: 72%
Barometer: 29.84 inHg , 1010.5 hPa
Visibility: 10 miles , 16 km
Cloud details: 2800 ft
3400 ft
2017/03/29 19:53 KRNT 291953Z 17016G28KT 10SM BKN028 OVC034 14/09 A2984 RMK AO2 PK WND 17030/1917 SLP108 T01390094 $
KBFI - Seattle-Boeing
Updated: Wed, 29-Mar-2017 1:32pm PDT

 Wind from S
Wind: S 14 mph , 22 km/h, Gust: 29 mph , 46 km/h
Temperature: 55°F , 13°C
Dew Point: 50°F , 10°C
Humidity: 82%
Barometer: 29.85 inHg , 1010.8 hPa
Visibility: 10 miles , 16 km
Cloud details: 2100 ft
4200 ft
5000 ft
2017/03/29 20:32 KBFI 292032Z 19012G25KT 170V230 10SM SCT021 BKN042 OVC050 13/10 A2985 RMK AO2 PK WND 20028/2013 RAE1956 P0000 T01330100
 
KSEA - Seattle
Updated: Wed, 29-Mar-2017 12:53pm PDT
Light rain, Overcast
Light rain, Overcast
 Wind from SSW
Wind: SSW 21 mph , 33 km/h, Gust: 33 mph , 54 km/h
Temperature: 54°F , 12°C
Dew Point: 48°F , 9°C
Humidity: 82%
Barometer: 29.84 inHg , 1010.5 hPa
Visibility: 7 miles , 11 km
Cloud details: 900 ft
2200 ft
2017/03/29 19:53 KSEA 291953Z 21018G29KT 7SM -RA FEW009 OVC022 12/09 A2984 RMK AO2 PK WND 21034/1931 RAB50 SLP111 P0000 T01220089
KSMP - Stampede Pass
Updated: Wed, 29-Mar-2017 12:59pm PDT
Light rain, Mist, Overcast
Light rain, Mist, Overcast
 Wind from calm
Wind: Calm
Temperature: 36°F , 2°C
Dew Point: 36°F , 2°C
Humidity: 100%
Barometer: 29.82 inHg , 1009.8 hPa
Summary: Light rain, Mist
Visibility: 2 miles , 3 km
Cloud details: 700 ft
2017/03/29 19:59 KSMP 291959Z AUTO 00000KT 2SM -RA BR OVC007 02/02 A2982 RMK AO2 P0000 T00170017 $